Time;durP1;ratioP1;P1;durP2;ratioP2;P2;SDS_P1;SDS_P2;PMS_P1;PMS_P2;Temp;Humidity;BMP_temperature;BMP_pressure;BME280_temperature;BME280_humidity;BME280_pressure;Samples;Min_cycle;Max_cycle;Signal;HPM_P1;HPM_P2
2022/07/14 00:02:24;;;;;;;2.47;0.60;;;14.20;99.90;;;;;;4987684;28;20245;-90
2022/07/14 00:04:50;;;;;;;1.63;0.70;;;14.10;99.90;;;;;;5002520;28;20215;-90
2022/07/14 00:07:15;;;;;;;1.63;0.60;;;14.10;99.90;;;;;;4978396;28;20218;-90
2022/07/14 00:09:41;;;;;;;2.17;0.80;;;14.10;99.90;;;;;;5008477;28;20272;-90
2022/07/14 00:12:07;;;;;;;5.00;0.73;;;14.10;99.90;;;;;;5022409;28;20646;-90
2022/07/14 00:14:33;;;;;;;1.70;0.67;;;14.00;99.90;;;;;;5004844;28;20187;-90
2022/07/14 00:16:58;;;;;;;3.20;0.40;;;13.90;99.90;;;;;;5024142;28;20219;-90
2022/07/14 00:19:24;;;;;;;0.33;0.33;;;13.80;99.90;;;;;;5004758;28;20310;-90
2022/07/14 00:21:50;;;;;;;1.80;0.70;;;13.90;99.90;;;;;;5021313;28;20233;-90
2022/07/14 00:24:16;;;;;;;3.47;0.60;;;13.90;99.90;;;;;;5037548;28;20227;-90
2022/07/14 00:26:42;;;;;;;1.30;0.73;;;13.80;99.90;;;;;;5007707;28;20217;-90
2022/07/14 00:29:08;;;;;;;2.77;0.87;;;13.80;99.90;;;;;;5022019;28;20246;-90
2022/07/14 00:31:36;;;;;;;1.17;1.00;;;13.80;99.90;;;;;;5021839;28;20230;-89
2022/07/14 00:34:01;;;;;;;1.50;0.97;;;13.70;99.90;;;;;;5021498;28;20214;-89
2022/07/14 00:36:27;;;;;;;2.47;0.47;;;13.80;99.90;;;;;;5021495;28;20264;-90
2022/07/14 00:38:55;;;;;;;1.90;0.60;;;13.80;99.90;;;;;;5021458;28;20182;-90
2022/07/14 00:41:21;;;;;;;2.53;0.70;;;13.80;99.90;;;;;;5019132;28;20215;-89
2022/07/14 00:43:46;;;;;;;0.70;0.70;;;13.80;99.90;;;;;;5022653;28;20226;-90
2022/07/14 00:46:12;;;;;;;1.33;0.30;;;13.80;99.90;;;;;;5004548;28;20230;-90
2022/07/14 00:48:38;;;;;;;3.23;1.47;;;13.80;99.90;;;;;;5004937;28;20211;-90
2022/07/14 00:51:04;;;;;;;0.53;0.30;;;13.80;99.90;;;;;;5005885;28;20189;-90
2022/07/14 00:53:30;;;;;;;4.37;1.37;;;13.80;99.90;;;;;;5005710;28;20232;-89
2022/07/14 00:55:55;;;;;;;5.40;0.83;;;13.90;99.90;;;;;;5003762;28;20211;-89
2022/07/14 00:58:21;;;;;;;0.97;0.27;;;13.80;99.90;;;;;;5005870;28;20206;-89
2022/07/14 01:00:47;;;;;;;0.47;0.40;;;13.80;99.90;;;;;;5018635;28;20368;-89
2022/07/14 01:03:13;;;;;;;4.37;0.37;;;13.80;99.90;;;;;;5020222;28;20175;-89
2022/07/14 01:05:39;;;;;;;1.23;0.57;;;13.80;99.90;;;;;;5004776;28;20187;-89
2022/07/14 01:08:05;;;;;;;1.83;0.77;;;13.80;99.90;;;;;;5021243;28;20313;-90
2022/07/14 01:10:31;;;;;;;0.87;0.47;;;13.80;99.90;;;;;;5021112;28;20243;-89
2022/07/14 01:13:00;;;;;;;0.40;0.30;;;13.80;99.90;;;;;;5038708;28;20211;-89
2022/07/14 01:15:26;;;;;;;1.93;0.37;;;13.70;99.90;;;;;;5022450;28;20211;-90
2022/07/14 01:17:52;;;;;;;1.07;0.80;;;13.60;99.90;;;;;;5020310;28;20186;-89
2022/07/14 01:20:18;;;;;;;0.97;0.80;;;13.60;99.90;;;;;;5006239;28;20276;-89
2022/07/14 01:22:47;;;;;;;0.70;0.50;;;13.60;99.90;;;;;;5019360;28;20242;-89
2022/07/14 01:25:14;;;;;;;0.30;0.30;;;13.50;99.90;;;;;;5021898;28;20248;-89
2022/07/14 01:27:40;;;;;;;6.37;0.67;;;13.50;99.90;;;;;;5022522;28;20215;-90
2022/07/14 01:30:07;;;;;;;0.30;0.30;;;13.50;99.90;;;;;;5020603;28;20278;-89
2022/07/14 01:32:34;;;;;;;4.57;0.53;;;13.60;99.90;;;;;;5020980;28;20195;-89
2022/07/14 01:34:59;;;;;;;1.80;0.60;;;13.60;99.90;;;;;;5021945;28;20226;-89
2022/07/14 01:37:26;;;;;;;0.73;0.53;;;13.60;99.90;;;;;;5005435;28;20210;-89
2022/07/14 01:39:52;;;;;;;1.50;0.63;;;13.60;99.90;;;;;;5003997;28;21237;-89
2022/07/14 01:42:18;;;;;;;2.43;0.60;;;13.70;99.90;;;;;;5003412;28;20290;-89
2022/07/14 01:44:43;;;;;;;1.80;0.73;;;13.60;99.90;;;;;;5025394;28;20193;-90
2022/07/14 01:47:09;;;;;;;6.60;0.40;;;13.40;99.90;;;;;;5022154;28;20215;-90
2022/07/14 01:49:36;;;;;;;2.73;0.30;;;13.30;99.90;;;;;;5018627;28;20625;-89
2022/07/14 01:52:02;;;;;;;0.60;0.50;;;13.30;99.90;;;;;;5019474;28;20706;-89
2022/07/14 01:54:27;;;;;;;5.10;0.83;;;13.40;99.90;;;;;;5004196;28;20219;-89
2022/07/14 01:56:53;;;;;;;2.30;1.37;;;13.40;99.90;;;;;;5007563;28;20191;-89
2022/07/14 01:59:19;;;;;;;0.53;0.43;;;13.40;99.90;;;;;;5023423;28;20272;-89
2022/07/14 02:01:46;;;;;;;1.13;0.93;;;13.30;99.90;;;;;;5023611;28;20259;-89
2022/07/14 02:04:14;;;;;;;0.80;0.80;;;13.30;99.90;;;;;;5010753;28;20215;-89
2022/07/14 02:06:42;;;;;;;0.83;0.70;;;13.30;99.90;;;;;;5012234;28;21153;-89
2022/07/14 02:09:08;;;;;;;1.03;0.70;;;13.20;99.90;;;;;;5004461;28;20274;-90
2022/07/14 02:14:19;;;;;;;0.60;0.60;;;13.20;99.90;;;;;;5003529;28;20223;-89
2022/07/14 02:16:45;;;;;;;3.40;0.70;;;13.30;99.90;;;;;;5020741;28;20227;-89
2022/07/14 02:19:10;;;;;;;0.77;0.63;;;13.30;99.90;;;;;;4988415;28;20219;-89
2022/07/14 02:21:39;;;;;;;1.30;0.77;;;13.20;99.90;;;;;;5021920;28;20226;-88
2022/07/14 02:24:05;;;;;;;1.17;1.00;;;13.20;99.90;;;;;;5006356;28;20199;-89
2022/07/14 02:26:31;;;;;;;3.87;1.10;;;13.20;99.90;;;;;;4996643;28;20199;-89
2022/07/14 02:28:57;;;;;;;13.40;1.53;;;13.20;99.90;;;;;;5022803;28;20207;-89
2022/07/14 02:31:23;;;;;;;2.30;1.00;;;13.10;99.90;;;;;;5025041;28;20701;-89
2022/07/14 02:33:49;;;;;;;0.80;0.80;;;13.10;99.90;;;;;;5023563;28;20222;-89
2022/07/14 02:36:15;;;;;;;1.27;0.87;;;13.10;99.90;;;;;;5007877;28;20187;-89
2022/07/14 02:38:41;;;;;;;1.60;1.20;;;13.10;99.90;;;;;;5039174;28;20770;-88
2022/07/14 02:41:07;;;;;;;1.10;1.00;;;13.10;99.90;;;;;;5024852;28;20227;-88
2022/07/14 02:43:34;;;;;;;6.40;1.03;;;13.10;99.90;;;;;;5023467;28;20682;-88
2022/07/14 02:46:00;;;;;;;0.70;0.70;;;13.10;99.90;;;;;;5023029;28;20210;-89
2022/07/14 02:48:26;;;;;;;1.70;1.33;;;13.00;99.90;;;;;;5024047;28;20310;-88
2022/07/14 02:50:58;;;;;;;2.00;0.70;;;12.90;99.90;;;;;;5023549;28;20759;-91
2022/07/14 02:53:24;;;;;;;1.00;1.00;;;12.80;99.90;;;;;;5024126;28;20219;-91
2022/07/14 02:55:50;;;;;;;1.40;1.23;;;12.70;99.90;;;;;;5003238;28;20229;-90
2022/07/14 02:58:17;;;;;;;1.17;0.90;;;12.70;99.90;;;;;;5005503;28;20268;-92
2022/07/14 03:00:44;;;;;;;4.60;1.03;;;12.80;99.90;;;;;;5006504;28;20211;-91
2022/07/14 03:03:10;;;;;;;3.07;0.83;;;12.70;99.90;;;;;;5023972;28;20233;-91
2022/07/14 03:05:35;;;;;;;5.00;0.90;;;12.70;99.90;;;;;;5006551;28;20252;-90
2022/07/14 03:08:01;;;;;;;0.60;0.60;;;12.60;99.90;;;;;;5018616;28;20273;-91
2022/07/14 03:10:27;;;;;;;2.27;0.90;;;12.30;99.90;;;;;;5019557;28;20296;-92
2022/07/14 03:12:53;;;;;;;3.37;1.00;;;12.10;99.90;;;;;;5005715;28;20222;-90
2022/07/14 03:15:19;;;;;;;3.33;0.90;;;12.20;99.90;;;;;;5004169;28;20215;-90
2022/07/14 03:17:44;;;;;;;0.50;0.50;;;12.30;99.90;;;;;;5004166;28;20195;-91
2022/07/14 03:20:12;;;;;;;1.97;1.00;;;12.40;99.90;;;;;;5021392;28;20713;-91
2022/07/14 03:22:38;;;;;;;2.53;1.30;;;12.40;99.90;;;;;;5039216;28;20218;-90
2022/07/14 03:25:05;;;;;;;2.80;0.70;;;12.40;99.90;;;;;;5022719;28;20224;-90
2022/07/14 03:27:31;;;;;;;1.00;1.00;;;12.40;99.90;;;;;;5007546;28;20703;-91
2022/07/14 03:29:57;;;;;;;5.37;0.97;;;12.30;99.90;;;;;;5008397;28;20292;-89
2022/07/14 03:32:23;;;;;;;0.80;0.70;;;12.40;99.90;;;;;;5014448;28;20213;-90
2022/07/14 03:34:49;;;;;;;0.80;0.80;;;12.40;99.90;;;;;;5006626;28;20718;-90
2022/07/14 03:37:15;;;;;;;0.70;0.70;;;12.50;99.90;;;;;;5005933;28;20226;-90
2022/07/14 03:39:41;;;;;;;0.90;0.60;;;12.50;99.90;;;;;;5007278;28;20207;-91
2022/07/14 03:42:07;;;;;;;2.17;1.03;;;12.40;99.90;;;;;;5006963;28;20199;-89
2022/07/14 03:44:32;;;;;;;1.50;0.90;;;12.30;99.90;;;;;;5031536;28;20282;-90
2022/07/14 03:46:58;;;;;;;0.97;0.70;;;12.20;99.90;;;;;;5022637;28;20227;-89
2022/07/14 03:49:24;;;;;;;1.23;1.13;;;12.10;99.90;;;;;;5005580;28;20744;-89
2022/07/14 03:51:50;;;;;;;1.27;0.70;;;12.10;99.90;;;;;;5006776;28;20210;-89
2022/07/14 03:54:15;;;;;;;1.10;0.70;;;12.10;99.90;;;;;;5038505;28;20232;-89
2022/07/14 03:56:41;;;;;;;0.73;0.57;;;12.10;99.90;;;;;;5022724;28;20191;-90
2022/07/14 03:59:08;;;;;;;2.77;1.40;;;12.20;99.90;;;;;;5003573;28;20219;-89
2022/07/14 04:01:33;;;;;;;0.83;0.83;;;12.30;99.90;;;;;;5000255;28;20227;-89
2022/07/14 04:03:59;;;;;;;4.83;1.20;;;12.40;99.90;;;;;;5020052;28;20683;-90
2022/07/14 04:06:26;;;;;;;2.53;0.97;;;12.50;99.90;;;;;;5021072;28;20217;-89
2022/07/14 04:08:52;;;;;;;1.60;0.83;;;12.60;99.90;;;;;;5022561;28;20191;-89
2022/07/14 04:11:17;;;;;;;2.13;1.33;;;12.70;99.90;;;;;;5004903;28;20240;-89
2022/07/14 04:13:45;;;;;;;3.47;1.00;;;12.90;99.90;;;;;;5020367;28;20218;-90
2022/07/14 04:16:11;;;;;;;3.63;1.40;;;13.00;99.90;;;;;;5004215;28;20218;-90
2022/07/14 04:18:37;;;;;;;1.47;1.07;;;13.00;99.90;;;;;;5020067;28;20636;-89
2022/07/14 04:21:03;;;;;;;12.37;1.27;;;13.10;99.90;;;;;;5018887;28;20187;-88
2022/07/14 04:23:28;;;;;;;5.73;1.60;;;13.20;99.90;;;;;;5005211;28;20274;-89
2022/07/14 04:25:54;;;;;;;1.97;1.20;;;13.30;99.90;;;;;;5020553;28;20235;-88
2022/07/14 04:28:20;;;;;;;2.40;1.00;;;13.40;99.90;;;;;;5022542;28;20271;-88
2022/07/14 04:30:47;;;;;;;6.50;1.93;;;13.40;99.90;;;;;;5006030;28;20227;-87
2022/07/14 04:33:13;;;;;;;1.17;1.03;;;13.50;99.90;;;;;;5021933;28;20188;-87
2022/07/14 04:35:38;;;;;;;3.23;1.67;;;13.60;99.90;;;;;;5005455;28;20190;-89
2022/07/14 04:38:04;;;;;;;7.10;1.30;;;13.60;99.90;;;;;;5004348;28;20242;-90
2022/07/14 04:40:30;;;;;;;1.90;1.33;;;13.70;99.90;;;;;;5037717;28;20217;-88
2022/07/14 04:42:56;;;;;;;5.27;1.27;;;13.80;99.90;;;;;;5005219;28;20210;-88
2022/07/14 04:45:22;;;;;;;3.57;2.10;;;13.90;99.90;;;;;;5002962;28;20234;-89
2022/07/14 04:47:51;;;;;;;5.20;1.27;;;14.00;99.90;;;;;;5022960;28;20287;-89
2022/07/14 04:53:01;;;;;;;1.90;1.17;;;14.00;99.90;;;;;;5035690;28;20602;-89
2022/07/14 04:55:27;;;;;;;2.67;1.40;;;14.10;99.90;;;;;;5004204;28;20284;-88
2022/07/14 04:57:53;;;;;;;2.50;1.33;;;14.10;99.90;;;;;;5020787;28;20229;-89
2022/07/14 05:00:19;;;;;;;1.00;0.90;;;14.20;99.90;;;;;;5020692;28;20682;-89
2022/07/14 05:02:44;;;;;;;1.23;0.90;;;14.30;99.90;;;;;;5005369;28;20591;-89
2022/07/14 05:05:10;;;;;;;1.47;1.17;;;14.40;99.90;;;;;;5002732;28;20292;-89
2022/07/14 05:07:36;;;;;;;2.43;0.73;;;14.50;99.90;;;;;;5004718;28;20257;-89
2022/07/14 05:10:04;;;;;;;14.07;1.23;;;14.60;99.90;;;;;;5020295;28;20238;-89
2022/07/14 05:12:30;;;;;;;3.97;0.90;;;14.80;99.90;;;;;;5036205;28;20225;-89
2022/07/14 05:14:56;;;;;;;4.20;0.60;;;15.00;99.90;;;;;;5037476;28;21220;-89
2022/07/14 05:17:22;;;;;;;0.67;0.67;;;15.50;99.90;;;;;;5021899;28;20199;-89
2022/07/14 05:19:49;;;;;;;0.70;0.40;;;15.80;99.90;;;;;;5017793;28;20219;-89
2022/07/14 05:22:15;;;;;;;3.90;1.00;;;16.20;99.90;;;;;;5020216;28;20277;-89
2022/07/14 05:24:44;;;;;;;0.80;0.70;;;16.40;99.90;;;;;;5036161;28;20679;-89
2022/07/14 05:27:10;;;;;;;9.40;0.80;;;16.70;99.90;;;;;;5021610;28;20222;-90
2022/07/14 05:29:36;;;;;;;0.57;0.57;;;18.40;99.90;;;;;;5005714;28;20289;-89
2022/07/14 05:32:02;;;;;;;2.63;0.50;;;21.50;99.90;;;;;;5004199;28;20309;-88
2022/07/14 05:34:31;;;;;;;1.97;0.90;;;23.30;99.90;;;;;;5020047;28;20206;-89
2022/07/14 05:36:58;;;;;;;2.30;0.63;;;24.80;99.90;;;;;;5018953;28;20214;-89
2022/07/14 05:39:24;;;;;;;2.83;1.00;;;26.30;99.90;;;;;;5036379;28;20222;-88
2022/07/14 05:41:50;;;;;;;0.70;0.70;;;27.30;99.90;;;;;;5005581;28;20236;-89
2022/07/14 05:44:16;;;;;;;0.80;0.80;;;28.00;99.90;;;;;;5019784;28;20249;-89
2022/07/14 05:46:42;;;;;;;1.00;0.60;;;28.50;99.90;;;;;;5018971;28;20621;-89
2022/07/14 05:49:07;;;;;;;0.93;0.60;;;28.40;99.90;;;;;;5004947;28;20582;-89
2022/07/14 05:51:33;;;;;;;0.40;0.40;;;28.30;99.90;;;;;;5021148;28;20265;-89
2022/07/14 05:53:59;;;;;;;0.50;0.50;;;28.90;99.90;;;;;;5005197;28;20270;-89
2022/07/14 05:56:25;;;;;;;0.93;0.70;;;28.60;99.90;;;;;;5019349;28;20644;-89
2022/07/14 05:58:50;;;;;;;2.50;0.67;;;27.30;99.90;;;;;;5020665;28;20222;-88
2022/07/14 06:01:18;;;;;;;1.40;0.63;;;27.60;99.90;;;;;;5003908;28;20310;-89
2022/07/14 06:03:44;;;;;;;0.47;0.47;;;27.60;99.90;;;;;;5003803;28;20260;-91
2022/07/14 06:06:10;;;;;;;0.60;0.60;;;27.40;99.90;;;;;;5020217;28;20214;-93
2022/07/14 06:08:36;;;;;;;2.50;0.73;;;27.60;99.90;;;;;;5022189;28;20256;-90
2022/07/14 06:11:03;;;;;;;1.08;0.30;;;28.70;99.90;;;;;;5019337;28;20230;-91
2022/07/14 06:13:30;;;;;;;1.23;0.65;;;28.40;99.90;;;;;;5034985;28;20306;-93
2022/07/14 06:15:58;;;;;;;0.50;0.30;;;28.40;99.90;;;;;;5036095;28;20210;-92
2022/07/14 06:18:25;;;;;;;3.28;0.60;;;27.30;99.90;;;;;;5020591;28;20291;-94
2022/07/14 06:20:51;;;;;;;1.70;0.55;;;28.60;99.90;;;;;;5019831;28;20928;-91
2022/07/14 06:23:17;;;;;;;0.77;0.60;;;28.70;99.90;;;;;;5019521;28;20213;-92
2022/07/14 06:25:42;;;;;;;0.40;0.40;;;28.70;99.90;;;;;;5019843;28;20207;-93
2022/07/14 06:28:09;;;;;;;2.90;0.55;;;28.60;99.90;;;;;;5004268;28;20226;-91
2022/07/14 06:30:35;;;;;;;0.60;0.60;;;30.10;99.90;;;;;;5021922;28;20286;-92
2022/07/14 06:33:01;;;;;;;2.65;0.50;;;30.30;99.90;;;;;;5022721;28;20526;-92
2022/07/14 06:35:27;;;;;;;0.30;0.30;;;29.00;99.90;;;;;;5022428;28;20237;-91
2022/07/14 06:37:54;;;;;;;0.40;0.40;;;28.40;99.90;;;;;;5024906;28;20222;-91
2022/07/14 06:40:20;;;;;;;0.65;0.35;;;27.10;99.90;;;;;;5024756;28;20633;-91
2022/07/14 06:42:46;;;;;;;2.28;0.50;;;25.60;99.90;;;;;;5022443;28;20215;-92
2022/07/14 06:45:13;;;;;;;0.60;0.60;;;23.90;99.90;;;;;;5026911;28;20175;-92
2022/07/14 06:47:38;;;;;;;0.90;0.50;;;24.00;99.90;;;;;;5031802;28;20191;-94
2022/07/14 06:50:06;;;;;;;2.67;0.47;;;26.70;99.90;;;;;;5024512;28;20218;-92
2022/07/14 06:52:32;;;;;;;1.17;0.70;;;26.50;99.90;;;;;;5022220;28;20210;-93
2022/07/14 06:54:59;;;;;;;4.03;0.60;;;26.30;99.90;;;;;;5023425;28;20577;-91
2022/07/14 06:57:25;;;;;;;0.57;0.47;;;25.30;99.90;;;;;;5023582;28;20657;-91
2022/07/14 06:59:51;;;;;;;0.32;0.32;;;26.00;99.90;;;;;;5010450;28;20262;-91
2022/07/14 07:02:18;;;;;;;0.45;0.45;;;26.50;99.90;;;;;;5023448;28;20208;-92
2022/07/14 07:04:44;;;;;;;1.50;0.90;;;25.40;99.90;;;;;;5015061;28;20211;-92
2022/07/14 07:07:10;;;;;;;2.63;0.50;;;25.10;99.90;;;;;;5025094;28;20229;-91
2022/07/14 07:09:36;;;;;;;1.52;0.50;;;24.50;99.90;;;;;;5023352;28;20840;-92
2022/07/14 07:12:02;;;;;;;1.05;0.50;;;25.10;99.90;;;;;;5008720;28;20191;-92
2022/07/14 07:14:27;;;;;;;2.05;0.63;;;25.60;99.90;;;;;;5024601;28;20179;-92
2022/07/14 07:16:53;;;;;;;0.60;0.35;;;24.90;99.90;;;;;;5006202;28;20225;-92
2022/07/14 07:19:19;;;;;;;0.68;0.50;;;23.30;99.90;;;;;;5007323;28;20235;-91
2022/07/14 07:21:45;;;;;;;0.95;0.47;;;23.20;99.90;;;;;;5007860;28;20214;-91
2022/07/14 07:24:10;;;;;;;0.85;0.50;;;23.10;99.90;;;;;;5005620;28;20700;-92
2022/07/14 07:26:39;;;;;;;0.40;0.40;;;23.70;99.90;;;;;;5010474;28;20230;-91
2022/07/14 07:29:05;;;;;;;0.30;0.30;;;24.40;99.90;;;;;;5024514;28;21203;-92
2022/07/14 07:31:32;;;;;;;0.30;0.30;;;26.00;99.90;;;;;;5005742;28;20214;-91
2022/07/14 07:33:58;;;;;;;1.90;0.70;;;25.70;99.90;;;;;;5021855;28;20207;-92
2022/07/14 07:36:25;;;;;;;0.90;0.47;;;24.80;99.90;;;;;;5007308;28;20211;-93
2022/07/14 07:38:51;;;;;;;2.72;0.60;;;24.20;99.90;;;;;;5005136;28;20273;-91
2022/07/14 07:41:16;;;;;;;0.40;0.40;;;23.60;99.90;;;;;;5020742;28;20227;-92
2022/07/14 07:43:42;;;;;;;1.75;0.50;;;22.80;99.90;;;;;;5005573;28;20266;-93
2022/07/14 07:46:08;;;;;;;0.52;0.40;;;22.60;99.90;;;;;;5005349;28;20221;-91
2022/07/14 07:48:34;;;;;;;0.88;0.50;;;21.80;99.90;;;;;;5020844;28;20222;-93
2022/07/14 07:51:00;;;;;;;0.57;0.57;;;21.70;99.90;;;;;;5023143;28;20286;-93
2022/07/14 07:53:26;;;;;;;0.30;0.30;;;21.30;99.90;;;;;;5020732;28;20630;-92
2022/07/14 07:55:53;;;;;;;0.73;0.63;;;21.10;99.90;;;;;;5004670;28;20218;-92
2022/07/14 07:58:20;;;;;;;0.60;0.50;;;20.90;99.90;;;;;;5006446;28;20253;-91
2022/07/14 08:00:47;;;;;;;1.23;0.60;;;21.10;99.90;;;;;;5023334;28;20218;-91
2022/07/14 08:03:13;;;;;;;2.23;0.57;;;20.80;99.90;;;;;;5019706;28;20231;-92
2022/07/14 08:05:40;;;;;;;1.80;0.77;;;21.50;99.90;;;;;;5021418;28;20648;-91
2022/07/14 08:08:07;;;;;;;0.70;0.40;;;22.40;99.90;;;;;;5021946;28;20230;-92
2022/07/14 08:10:33;;;;;;;1.23;0.40;;;22.40;99.90;;;;;;5037126;28;20308;-91
2022/07/14 08:12:59;;;;;;;0.57;0.57;;;21.60;99.90;;;;;;5005085;28;20258;-92
2022/07/14 08:15:25;;;;;;;1.13;0.57;;;21.60;99.90;;;;;;5023631;28;20218;-92
2022/07/14 08:17:51;;;;;;;0.93;0.60;;;21.00;99.90;;;;;;5024197;28;20215;-92
2022/07/14 08:20:17;;;;;;;1.53;0.40;;;21.00;99.90;;;;;;5004650;28;20307;-91
2022/07/14 08:22:43;;;;;;;1.67;0.63;;;21.40;99.90;;;;;;5005638;28;20579;-92
2022/07/14 08:25:10;;;;;;;1.23;0.90;;;21.00;99.90;;;;;;5006360;28;20219;-92
2022/07/14 08:27:36;;;;;;;0.60;0.60;;;21.20;99.90;;;;;;5024016;28;20310;-91
2022/07/14 08:30:03;;;;;;;2.37;0.50;;;21.20;99.90;;;;;;5006856;28;20325;-92
2022/07/14 08:32:40;;;;;;;0.90;0.70;;;21.60;99.90;;;;;;5021686;28;20179;-91
2022/07/14 08:35:08;;;;;;;0.63;0.60;;;21.60;99.90;;;;;;5013323;28;20290;-92
2022/07/14 08:37:35;;;;;;;0.67;0.50;;;21.40;99.90;;;;;;5038008;28;20222;-92
2022/07/14 08:40:22;;;;;;;0.73;0.50;;;20.90;99.90;;;;;;5021335;28;20580;-91
2022/07/14 08:42:50;;;;;;;0.40;0.40;;;21.00;99.90;;;;;;5037178;28;20698;-92
2022/07/14 08:45:20;;;;;;;2.00;0.50;;;21.10;99.90;;;;;;5022174;28;20219;-91
2022/07/14 08:47:47;;;;;;;3.07;1.00;;;21.20;99.90;;;;;;5029289;28;20627;-92
2022/07/14 08:50:15;;;;;;;1.43;0.60;;;21.00;99.90;;;;;;5020233;28;20214;-92
2022/07/14 08:52:42;;;;;;;3.93;0.57;;;21.00;99.90;;;;;;5022268;28;20199;-91
2022/07/14 08:55:10;;;;;;;3.53;1.00;;;20.80;99.90;;;;;;5023565;28;20229;-91
2022/07/14 08:57:38;;;;;;;0.70;0.70;;;20.70;99.90;;;;;;5021495;28;20305;-91
2022/07/14 09:00:11;;;;;;;0.37;0.37;;;20.50;99.90;;;;;;5006168;28;20182;-91
2022/07/14 09:02:38;;;;;;;0.60;0.60;;;20.40;99.90;;;;;;5037548;28;20515;-91
2022/07/14 09:05:06;;;;;;;4.90;0.60;;;20.30;99.90;;;;;;5036575;28;20234;-91
2022/07/14 09:07:36;;;;;;;0.67;0.67;;;20.60;99.90;;;;;;5020736;28;20221;-91
2022/07/14 09:10:13;;;;;;;3.17;0.53;;;20.40;99.90;;;;;;5023562;28;20313;-91
2022/07/14 09:12:44;;;;;;;0.60;0.53;;;20.00;99.90;;;;;;5021728;28;20224;-92
2022/07/14 09:18:02;;;;;;;0.67;0.53;;;21.40;99.90;;;;;;5020664;28;20691;-92
2022/07/14 09:20:30;;;;;;;0.43;0.40;;;22.00;99.90;;;;;;5024536;28;20191;-95
2022/07/14 09:23:00;;;;;;;3.83;0.60;;;20.90;99.90;;;;;;5020566;28;20314;-94
2022/07/14 09:25:28;;;;;;;1.37;0.70;;;21.30;99.90;;;;;;5016841;28;20226;-94
2022/07/14 09:27:54;;;;;;;0.53;0.53;;;21.40;99.90;;;;;;5021237;28;20230;-92
2022/07/14 09:30:21;;;;;;;0.33;0.33;;;21.00;99.90;;;;;;5021839;28;20214;-92
2022/07/14 09:33:04;;;;;;;2.97;0.60;;;20.40;99.90;;;;;;5023752;28;20203;-91
2022/07/14 09:35:38;;;;;;;0.40;0.40;;;20.40;99.90;;;;;;5038193;28;20210;-93
2022/07/14 09:38:19;;;;;;;2.53;0.50;;;20.10;99.90;;;;;;5028778;28;20675;-91
2022/07/14 09:40:46;;;;;;;2.00;0.60;;;20.20;99.90;;;;;;5017971;28;20583;-92
2022/07/14 09:43:13;;;;;;;0.50;0.50;;;20.50;99.90;;;;;;5024240;28;20219;-91
2022/07/14 09:45:42;;;;;;;0.83;0.60;;;20.60;99.90;;;;;;4989249;28;20203;-92
2022/07/14 09:48:13;;;;;;;0.87;0.60;;;20.60;99.90;;;;;;5010380;28;20210;-90
2022/07/14 09:50:40;;;;;;;0.60;0.40;;;20.30;99.90;;;;;;5019108;28;20249;-91
2022/07/14 09:53:19;;;;;;;3.53;0.70;;;20.60;99.90;;;;;;5012003;28;20710;-90
2022/07/14 09:56:06;;;;;;;0.60;0.50;;;21.20;99.90;;;;;;5010813;28;20207;-91
2022/07/14 09:58:32;;;;;;;2.40;0.53;;;22.00;99.90;;;;;;4994220;28;20238;-89
2022/07/14 10:01:05;;;;;;;0.30;0.30;;;21.70;99.90;;;;;;5011486;28;20706;-90
2022/07/14 10:03:33;;;;;;;0.57;0.40;;;21.20;99.90;;;;;;5010349;28;20207;-91
2022/07/14 10:06:02;;;;;;;0.30;0.30;;;20.60;99.90;;;;;;5005946;28;20726;-92
2022/07/14 10:08:30;;;;;;;0.40;0.40;;;20.80;99.90;;;;;;5013697;28;21202;-93
2022/07/14 10:10:58;;;;;;;1.23;0.43;;;20.70;99.90;;;;;;5006365;28;20665;-89
2022/07/14 10:13:25;;;;;;;0.50;0.50;;;20.20;99.90;;;;;;5004102;28;20318;-90
2022/07/14 10:15:55;;;;;;;0.40;0.40;;;20.20;99.90;;;;;;4971740;28;20219;-91
2022/07/14 10:18:22;;;;;;;2.27;0.73;;;19.70;99.90;;;;;;5003352;28;20306;-92
2022/07/14 10:20:51;;;;;;;0.63;0.60;;;19.50;99.90;;;;;;5011498;28;20195;-90
2022/07/14 10:23:18;;;;;;;0.70;0.70;;;19.80;99.90;;;;;;5004063;28;20219;-91
2022/07/14 10:25:50;;;;;;;0.60;0.53;;;20.00;99.90;;;;;;4988346;28;20227;-91
2022/07/14 10:28:17;;;;;;;0.93;0.40;;;20.00;99.90;;;;;;5005525;28;20708;-91
2022/07/14 10:31:27;;;;;;;0.70;0.70;;;20.00;99.90;;;;;;4987916;28;20219;-91
2022/07/14 10:34:04;;;;;;;0.47;0.47;;;20.10;99.90;;;;;;5005463;28;20222;-91
2022/07/14 10:36:51;;;;;;;3.70;0.70;;;20.10;99.90;;;;;;5004962;28;20278;-91
2022/07/14 10:40:10;;;;;;;2.53;0.73;;;20.10;99.90;;;;;;5005249;28;20227;-90
2022/07/14 10:42:51;;;;;;;1.07;0.60;;;20.10;99.90;;;;;;4965910;28;20359;-90
2022/07/14 10:45:17;;;;;;;0.93;0.67;;;20.00;99.90;;;;;;5018306;28;20222;-92
2022/07/14 10:47:53;;;;;;;1.50;0.40;;;20.20;99.90;;;;;;4991523;28;20303;-92
2022/07/14 10:50:20;;;;;;;2.00;0.47;;;20.40;99.90;;;;;;5002349;28;20211;-90
2022/07/14 10:52:56;;;;;;;0.40;0.40;;;20.50;99.90;;;;;;5017851;28;20432;-90
2022/07/14 10:55:34;;;;;;;0.50;0.50;;;21.20;99.90;;;;;;5035576;28;20301;-91
2022/07/14 10:57:59;;;;;;;0.67;0.60;;;22.00;99.90;;;;;;5005408;28;20211;-91
2022/07/14 11:00:43;;;;;;;0.60;0.60;;;21.90;99.90;;;;;;5003173;28;20222;-93
2022/07/14 11:03:37;;;;;;;0.83;0.50;;;22.00;99.90;;;;;;5038729;28;20187;-92
2022/07/14 11:08:32;;;;;;;0.70;0.50;;;22.10;99.90;;;;;;5006133;28;20306;-92
2022/07/14 11:10:59;;;;;;;1.13;0.60;;;22.50;99.90;;;;;;4987406;28;20270;-93
2022/07/14 11:13:26;;;;;;;2.47;0.98;;;22.60;99.90;;;;;;5005802;28;20239;-93
2022/07/14 11:15:52;;;;;;;1.83;0.50;;;22.60;99.90;;;;;;4985912;28;20818;-93
2022/07/14 11:18:17;;;;;;;1.58;0.50;;;22.10;99.90;;;;;;5034559;28;20306;-92
2022/07/14 11:21:13;;;;;;;1.65;0.50;;;22.20;99.90;;;;;;5004260;28;20194;-92
2022/07/14 11:23:54;;;;;;;0.57;0.55;;;22.20;99.90;;;;;;5002968;28;20267;-92
2022/07/14 11:26:35;;;;;;;2.42;0.63;;;22.40;99.90;;;;;;5004217;28;20224;-93
2022/07/14 11:29:03;;;;;;;0.50;0.50;;;21.90;99.90;;;;;;5020545;28;20246;-93
2022/07/14 11:31:42;;;;;;;0.77;0.77;;;21.80;99.90;;;;;;5006138;28;20314;-93
2022/07/14 11:37:14;;;;;;;2.88;0.75;;;22.00;99.90;;;;;;5002626;28;20243;-92
2022/07/14 11:39:42;;;;;;;1.33;0.50;;;22.20;99.90;;;;;;4987395;28;20208;-93
2022/07/14 11:42:16;;;;;;;1.42;0.70;;;22.40;99.90;;;;;;5004351;28;20187;-90
2022/07/14 11:44:43;;;;;;;2.47;0.50;;;22.30;99.90;;;;;;5021796;28;20179;-91
2022/07/14 11:47:09;;;;;;;0.85;0.52;;;22.60;99.90;;;;;;5002204;28;20227;-91
2022/07/14 11:49:36;;;;;;;1.77;0.45;;;22.60;99.90;;;;;;5004156;28;20246;-92
2022/07/14 11:52:04;;;;;;;0.47;0.47;;;22.40;99.90;;;;;;4987221;28;20211;-92
2022/07/14 11:54:30;;;;;;;0.95;0.65;;;22.70;99.90;;;;;;4988253;28;20579;-92
2022/07/14 11:57:07;;;;;;;2.20;0.60;;;22.00;99.90;;;;;;4986404;28;20275;-90
2022/07/14 11:59:34;;;;;;;4.13;0.80;;;21.70;99.90;;;;;;4999615;28;20679;-91
2022/07/14 12:02:08;;;;;;;2.60;0.70;;;22.10;99.90;;;;;;4988463;28;20219;-91
2022/07/14 12:04:34;;;;;;;2.10;0.87;;;22.30;99.90;;;;;;4999506;28;20230;-92
2022/07/14 12:07:00;;;;;;;0.53;0.53;;;22.30;99.90;;;;;;4970152;28;20226;-91
2022/07/14 12:09:33;;;;;;;0.95;0.55;;;22.20;99.90;;;;;;4987893;28;20207;-90
2022/07/14 12:11:59;;;;;;;0.87;0.63;;;22.00;99.90;;;;;;4986562;28;20911;-91
2022/07/14 12:14:25;;;;;;;0.90;0.70;;;22.10;99.90;;;;;;5003903;28;20180;-91
2022/07/14 12:16:51;;;;;;;2.00;0.87;;;21.30;99.90;;;;;;5001455;28;20216;-91
2022/07/14 12:19:30;;;;;;;2.77;0.70;;;21.50;99.90;;;;;;4985473;28;20223;-91
2022/07/14 12:22:03;;;;;;;1.07;0.60;;;21.50;99.90;;;;;;5018590;28;20739;-91
2022/07/14 12:24:29;;;;;;;1.00;0.50;;;21.80;99.90;;;;;;5002227;28;20734;-92
2022/07/14 12:27:06;;;;;;;0.80;0.57;;;21.70;99.90;;;;;;5002038;28;20636;-91
2022/07/14 12:29:33;;;;;;;0.50;0.50;;;21.70;99.90;;;;;;5001930;28;20671;-92
2022/07/14 12:32:00;;;;;;;1.10;0.57;;;22.00;99.90;;;;;;4995559;28;20215;-92
2022/07/14 12:34:31;;;;;;;0.57;0.53;;;22.00;99.90;;;;;;4992564;28;20304;-93
2022/07/14 12:37:04;;;;;;;2.53;0.83;;;21.60;99.90;;;;;;4984911;28;20223;-92
2022/07/14 12:39:30;;;;;;;0.93;0.60;;;22.00;99.90;;;;;;5008150;28;20235;-92
2022/07/14 12:41:58;;;;;;;1.05;0.73;;;22.40;99.90;;;;;;4982365;28;20195;-90
2022/07/14 12:44:24;;;;;;;1.47;0.47;;;22.50;99.90;;;;;;4993032;28;20263;-92
2022/07/14 12:47:11;;;;;;;0.50;0.50;;;22.40;99.90;;;;;;5012519;28;20799;-92
2022/07/14 12:49:45;;;;;;;1.77;0.80;;;21.80;99.90;;;;;;5020675;28;20245;-91
2022/07/14 12:52:12;;;;;;;1.33;0.67;;;21.60;99.90;;;;;;5020648;28;20569;-91
2022/07/14 12:54:40;;;;;;;0.60;0.50;;;20.60;99.90;;;;;;5021437;28;20213;-93
2022/07/14 12:57:16;;;;;;;9.30;0.60;;;20.80;99.90;;;;;;5020427;28;20199;-91
2022/07/14 12:59:43;;;;;;;0.50;0.50;;;20.70;99.90;;;;;;5039269;28;20214;-93
2022/07/14 13:02:10;;;;;;;0.37;0.37;;;21.30;99.90;;;;;;5020570;28;20294;-93
2022/07/14 13:04:47;;;;;;;0.63;0.63;;;21.60;99.90;;;;;;5037277;28;20219;-91